sensor_id;sensor_type;location;lat;lon;timestamp;P1;durP1;ratioP1;P2;durP2;ratioP2
84662;SDS011;74891;59.208;18.220;2024-01-07T00:01:48;7.55;;;3.45;;
84662;SDS011;74891;59.208;18.220;2024-01-07T00:04:17;8.35;;;3.50;;
84662;SDS011;74891;59.208;18.220;2024-01-07T00:06:43;5.95;;;3.47;;
84662;SDS011;74891;59.208;18.220;2024-01-07T00:09:10;8.80;;;2.88;;
84662;SDS011;74891;59.208;18.220;2024-01-07T00:11:37;6.55;;;3.25;;
84662;SDS011;74891;59.208;18.220;2024-01-07T00:14:02;5.80;;;3.65;;
84662;SDS011;74891;59.208;18.220;2024-01-07T00:16:30;11.48;;;4.05;;
84662;SDS011;74891;59.208;18.220;2024-01-07T00:18:55;5.78;;;3.38;;
84662;SDS011;74891;59.208;18.220;2024-01-07T00:21:21;9.15;;;3.85;;
84662;SDS011;74891;59.208;18.220;2024-01-07T00:23:47;7.80;;;3.67;;
84662;SDS011;74891;59.208;18.220;2024-01-07T00:26:12;5.97;;;3.47;;
84662;SDS011;74891;59.208;18.220;2024-01-07T00:28:38;5.13;;;3.10;;
84662;SDS011;74891;59.208;18.220;2024-01-07T00:31:03;6.13;;;2.88;;
84662;SDS011;74891;59.208;18.220;2024-01-07T00:33:30;5.82;;;3.70;;
84662;SDS011;74891;59.208;18.220;2024-01-07T00:35:56;5.90;;;3.15;;
84662;SDS011;74891;59.208;18.220;2024-01-07T00:38:22;5.97;;;3.38;;
84662;SDS011;74891;59.208;18.220;2024-01-07T00:40:47;7.70;;;3.53;;
84662;SDS011;74891;59.208;18.220;2024-01-07T00:43:13;7.25;;;3.53;;
84662;SDS011;74891;59.208;18.220;2024-01-07T00:45:38;5.82;;;3.33;;
84662;SDS011;74891;59.208;18.220;2024-01-07T00:48:03;5.57;;;3.17;;
84662;SDS011;74891;59.208;18.220;2024-01-07T00:50:29;7.53;;;3.38;;
84662;SDS011;74891;59.208;18.220;2024-01-07T00:52:55;6.63;;;3.20;;
84662;SDS011;74891;59.208;18.220;2024-01-07T00:55:20;6.57;;;2.75;;
84662;SDS011;74891;59.208;18.220;2024-01-07T00:57:47;5.90;;;2.63;;
84662;SDS011;74891;59.208;18.220;2024-01-07T01:00:12;6.05;;;3.85;;
84662;SDS011;74891;59.208;18.220;2024-01-07T01:02:38;7.40;;;3.42;;
84662;SDS011;74891;59.208;18.220;2024-01-07T01:05:04;5.40;;;2.83;;
84662;SDS011;74891;59.208;18.220;2024-01-07T01:07:29;7.63;;;3.50;;
84662;SDS011;74891;59.208;18.220;2024-01-07T01:09:55;5.38;;;3.10;;
84662;SDS011;74891;59.208;18.220;2024-01-07T01:12:23;5.65;;;3.03;;
84662;SDS011;74891;59.208;18.220;2024-01-07T01:14:48;6.75;;;2.85;;
84662;SDS011;74891;59.208;18.220;2024-01-07T01:17:14;7.70;;;2.92;;
84662;SDS011;74891;59.208;18.220;2024-01-07T01:19:39;6.85;;;3.40;;
84662;SDS011;74891;59.208;18.220;2024-01-07T01:22:05;4.70;;;2.75;;
84662;SDS011;74891;59.208;18.220;2024-01-07T01:24:30;4.55;;;2.40;;
84662;SDS011;74891;59.208;18.220;2024-01-07T01:26:55;8.50;;;3.42;;
84662;SDS011;74891;59.208;18.220;2024-01-07T01:29:21;7.10;;;3.83;;
84662;SDS011;74891;59.208;18.220;2024-01-07T01:31:46;8.45;;;3.78;;
84662;SDS011;74891;59.208;18.220;2024-01-07T01:34:13;7.15;;;3.03;;
84662;SDS011;74891;59.208;18.220;2024-01-07T01:36:38;8.18;;;2.90;;
84662;SDS011;74891;59.208;18.220;2024-01-07T01:39:04;8.32;;;3.70;;
84662;SDS011;74891;59.208;18.220;2024-01-07T01:41:29;7.82;;;3.70;;
84662;SDS011;74891;59.208;18.220;2024-01-07T01:43:58;7.13;;;3.35;;
84662;SDS011;74891;59.208;18.220;2024-01-07T01:46:25;3.92;;;2.53;;
84662;SDS011;74891;59.208;18.220;2024-01-07T01:48:50;7.70;;;3.40;;
84662;SDS011;74891;59.208;18.220;2024-01-07T01:51:16;5.80;;;2.92;;
84662;SDS011;74891;59.208;18.220;2024-01-07T01:53:42;5.25;;;3.25;;
84662;SDS011;74891;59.208;18.220;2024-01-07T01:56:08;5.65;;;3.20;;
84662;SDS011;74891;59.208;18.220;2024-01-07T01:58:33;7.68;;;3.15;;
84662;SDS011;74891;59.208;18.220;2024-01-07T02:00:59;7.20;;;3.50;;
84662;SDS011;74891;59.208;18.220;2024-01-07T02:03:24;6.22;;;2.60;;
84662;SDS011;74891;59.208;18.220;2024-01-07T02:05:51;7.07;;;3.35;;
84662;SDS011;74891;59.208;18.220;2024-01-07T02:08:20;6.72;;;3.20;;
84662;SDS011;74891;59.208;18.220;2024-01-07T02:10:49;5.90;;;3.03;;
84662;SDS011;74891;59.208;18.220;2024-01-07T02:13:15;4.95;;;2.55;;
84662;SDS011;74891;59.208;18.220;2024-01-07T02:15:40;9.50;;;3.05;;
84662;SDS011;74891;59.208;18.220;2024-01-07T02:18:06;4.65;;;3.03;;
84662;SDS011;74891;59.208;18.220;2024-01-07T02:20:31;7.40;;;3.10;;
84662;SDS011;74891;59.208;18.220;2024-01-07T02:22:57;7.30;;;3.45;;
84662;SDS011;74891;59.208;18.220;2024-01-07T02:25:25;5.97;;;2.88;;
84662;SDS011;74891;59.208;18.220;2024-01-07T02:27:51;2.83;;;2.38;;
84662;SDS011;74891;59.208;18.220;2024-01-07T02:30:16;7.43;;;3.20;;
84662;SDS011;74891;59.208;18.220;2024-01-07T02:32:42;6.25;;;3.13;;
84662;SDS011;74891;59.208;18.220;2024-01-07T02:35:08;7.88;;;3.17;;
84662;SDS011;74891;59.208;18.220;2024-01-07T02:37:33;6.28;;;2.90;;
84662;SDS011;74891;59.208;18.220;2024-01-07T02:39:59;5.30;;;2.85;;
84662;SDS011;74891;59.208;18.220;2024-01-07T02:42:25;5.28;;;3.10;;
84662;SDS011;74891;59.208;18.220;2024-01-07T02:44:50;7.40;;;3.08;;
84662;SDS011;74891;59.208;18.220;2024-01-07T02:47:16;8.13;;;3.17;;
84662;SDS011;74891;59.208;18.220;2024-01-07T02:49:41;9.88;;;2.58;;
84662;SDS011;74891;59.208;18.220;2024-01-07T02:52:07;5.82;;;3.17;;
84662;SDS011;74891;59.208;18.220;2024-01-07T02:54:32;5.13;;;2.20;;
84662;SDS011;74891;59.208;18.220;2024-01-07T02:56:57;7.13;;;3.10;;
84662;SDS011;74891;59.208;18.220;2024-01-07T02:59:23;5.75;;;2.75;;
84662;SDS011;74891;59.208;18.220;2024-01-07T03:01:48;5.00;;;2.30;;
84662;SDS011;74891;59.208;18.220;2024-01-07T03:04:15;5.37;;;2.87;;
84662;SDS011;74891;59.208;18.220;2024-01-07T03:06:41;5.80;;;3.05;;
84662;SDS011;74891;59.208;18.220;2024-01-07T03:09:07;4.05;;;2.35;;
84662;SDS011;74891;59.208;18.220;2024-01-07T03:11:33;6.82;;;2.78;;
84662;SDS011;74891;59.208;18.220;2024-01-07T03:13:58;6.93;;;3.13;;
84662;SDS011;74891;59.208;18.220;2024-01-07T03:16:24;4.82;;;2.92;;
84662;SDS011;74891;59.208;18.220;2024-01-07T03:18:51;3.80;;;2.20;;
84662;SDS011;74891;59.208;18.220;2024-01-07T03:21:17;4.25;;;2.35;;
84662;SDS011;74891;59.208;18.220;2024-01-07T03:23:47;3.97;;;2.17;;
84662;SDS011;74891;59.208;18.220;2024-01-07T03:26:13;4.47;;;2.45;;
84662;SDS011;74891;59.208;18.220;2024-01-07T03:28:39;8.25;;;2.95;;
84662;SDS011;74891;59.208;18.220;2024-01-07T03:31:07;6.15;;;2.47;;
84662;SDS011;74891;59.208;18.220;2024-01-07T03:33:33;5.55;;;2.83;;
84662;SDS011;74891;59.208;18.220;2024-01-07T03:35:59;7.57;;;2.83;;
84662;SDS011;74891;59.208;18.220;2024-01-07T03:38:24;6.45;;;2.63;;
84662;SDS011;74891;59.208;18.220;2024-01-07T03:40:50;4.78;;;2.45;;
84662;SDS011;74891;59.208;18.220;2024-01-07T03:43:15;7.53;;;3.22;;
84662;SDS011;74891;59.208;18.220;2024-01-07T03:45:41;4.70;;;2.85;;
84662;SDS011;74891;59.208;18.220;2024-01-07T03:48:08;6.10;;;3.10;;
84662;SDS011;74891;59.208;18.220;2024-01-07T03:50:33;5.28;;;2.45;;
84662;SDS011;74891;59.208;18.220;2024-01-07T03:52:59;5.40;;;2.85;;
84662;SDS011;74891;59.208;18.220;2024-01-07T03:55:25;3.83;;;2.38;;
84662;SDS011;74891;59.208;18.220;2024-01-07T03:57:50;6.32;;;2.70;;
84662;SDS011;74891;59.208;18.220;2024-01-07T04:00:16;5.35;;;2.20;;
84662;SDS011;74891;59.208;18.220;2024-01-07T04:02:41;4.43;;;2.45;;
84662;SDS011;74891;59.208;18.220;2024-01-07T04:05:07;4.97;;;2.80;;
84662;SDS011;74891;59.208;18.220;2024-01-07T04:07:32;4.50;;;2.55;;
84662;SDS011;74891;59.208;18.220;2024-01-07T04:09:59;3.53;;;2.42;;
84662;SDS011;74891;59.208;18.220;2024-01-07T04:12:24;4.78;;;2.33;;
84662;SDS011;74891;59.208;18.220;2024-01-07T04:14:50;4.40;;;2.53;;
84662;SDS011;74891;59.208;18.220;2024-01-07T04:17:15;5.00;;;2.50;;
84662;SDS011;74891;59.208;18.220;2024-01-07T04:19:41;3.72;;;2.35;;
84662;SDS011;74891;59.208;18.220;2024-01-07T04:22:06;5.90;;;2.72;;
84662;SDS011;74891;59.208;18.220;2024-01-07T04:24:31;5.90;;;2.95;;
84662;SDS011;74891;59.208;18.220;2024-01-07T04:26:57;4.22;;;2.10;;
84662;SDS011;74891;59.208;18.220;2024-01-07T04:29:22;4.03;;;2.10;;
84662;SDS011;74891;59.208;18.220;2024-01-07T04:31:48;4.53;;;2.42;;
84662;SDS011;74891;59.208;18.220;2024-01-07T04:34:14;4.00;;;2.25;;
84662;SDS011;74891;59.208;18.220;2024-01-07T04:36:39;3.50;;;2.33;;
84662;SDS011;74891;59.208;18.220;2024-01-07T04:39:05;6.35;;;2.95;;
84662;SDS011;74891;59.208;18.220;2024-01-07T04:41:30;4.57;;;2.58;;
84662;SDS011;74891;59.208;18.220;2024-01-07T04:43:55;6.25;;;2.95;;
84662;SDS011;74891;59.208;18.220;2024-01-07T04:46:21;3.80;;;2.42;;
84662;SDS011;74891;59.208;18.220;2024-01-07T04:48:46;3.30;;;1.90;;
84662;SDS011;74891;59.208;18.220;2024-01-07T04:51:12;7.63;;;2.47;;
84662;SDS011;74891;59.208;18.220;2024-01-07T04:53:37;3.60;;;2.42;;
84662;SDS011;74891;59.208;18.220;2024-01-07T04:56:03;3.85;;;2.28;;
84662;SDS011;74891;59.208;18.220;2024-01-07T04:58:28;3.30;;;2.30;;
84662;SDS011;74891;59.208;18.220;2024-01-07T05:00:54;5.90;;;2.42;;
84662;SDS011;74891;59.208;18.220;2024-01-07T05:03:19;3.97;;;2.28;;
84662;SDS011;74891;59.208;18.220;2024-01-07T05:05:44;6.05;;;2.60;;
84662;SDS011;74891;59.208;18.220;2024-01-07T05:08:12;3.72;;;1.95;;
84662;SDS011;74891;59.208;18.220;2024-01-07T05:10:38;3.78;;;2.25;;
84662;SDS011;74891;59.208;18.220;2024-01-07T05:13:03;3.03;;;1.80;;
84662;SDS011;74891;59.208;18.220;2024-01-07T05:15:31;5.07;;;2.47;;
84662;SDS011;74891;59.208;18.220;2024-01-07T05:17:58;4.68;;;2.10;;
84662;SDS011;74891;59.208;18.220;2024-01-07T05:20:23;6.68;;;2.58;;
84662;SDS011;74891;59.208;18.220;2024-01-07T05:22:49;4.80;;;1.88;;
84662;SDS011;74891;59.208;18.220;2024-01-07T05:25:14;4.95;;;2.22;;
84662;SDS011;74891;59.208;18.220;2024-01-07T05:27:39;5.57;;;2.23;;
84662;SDS011;74891;59.208;18.220;2024-01-07T05:30:05;3.30;;;2.03;;
84662;SDS011;74891;59.208;18.220;2024-01-07T05:32:32;5.07;;;2.20;;
84662;SDS011;74891;59.208;18.220;2024-01-07T05:34:58;4.07;;;2.25;;
84662;SDS011;74891;59.208;18.220;2024-01-07T05:37:23;3.55;;;1.83;;
84662;SDS011;74891;59.208;18.220;2024-01-07T05:39:49;3.97;;;2.20;;
84662;SDS011;74891;59.208;18.220;2024-01-07T05:42:14;3.35;;;1.73;;
84662;SDS011;74891;59.208;18.220;2024-01-07T05:44:39;2.65;;;2.17;;
84662;SDS011;74891;59.208;18.220;2024-01-07T05:47:05;3.90;;;2.25;;
84662;SDS011;74891;59.208;18.220;2024-01-07T05:49:31;3.30;;;1.73;;
84662;SDS011;74891;59.208;18.220;2024-01-07T05:51:56;3.47;;;1.55;;
84662;SDS011;74891;59.208;18.220;2024-01-07T05:54:22;7.80;;;1.88;;
84662;SDS011;74891;59.208;18.220;2024-01-07T05:56:47;3.92;;;2.00;;
84662;SDS011;74891;59.208;18.220;2024-01-07T05:59:13;2.83;;;1.90;;
84662;SDS011;74891;59.208;18.220;2024-01-07T06:01:38;5.50;;;2.78;;
84662;SDS011;74891;59.208;18.220;2024-01-07T06:04:04;2.50;;;1.50;;
84662;SDS011;74891;59.208;18.220;2024-01-07T06:06:29;4.85;;;1.73;;
84662;SDS011;74891;59.208;18.220;2024-01-07T06:08:55;3.95;;;2.10;;
84662;SDS011;74891;59.208;18.220;2024-01-07T06:11:20;2.00;;;1.45;;
84662;SDS011;74891;59.208;18.220;2024-01-07T06:13:46;4.25;;;2.15;;
84662;SDS011;74891;59.208;18.220;2024-01-07T06:16:11;5.50;;;2.47;;
84662;SDS011;74891;59.208;18.220;2024-01-07T06:18:37;3.72;;;2.13;;
84662;SDS011;74891;59.208;18.220;2024-01-07T06:21:03;3.30;;;1.70;;
84662;SDS011;74891;59.208;18.220;2024-01-07T06:23:28;2.53;;;1.73;;
84662;SDS011;74891;59.208;18.220;2024-01-07T06:25:55;5.13;;;2.10;;
84662;SDS011;74891;59.208;18.220;2024-01-07T06:28:20;4.55;;;1.95;;
84662;SDS011;74891;59.208;18.220;2024-01-07T06:30:46;3.03;;;2.28;;
84662;SDS011;74891;59.208;18.220;2024-01-07T06:33:11;5.07;;;1.50;;
84662;SDS011;74891;59.208;18.220;2024-01-07T06:35:38;2.15;;;1.88;;
84662;SDS011;74891;59.208;18.220;2024-01-07T06:38:03;4.25;;;2.28;;
84662;SDS011;74891;59.208;18.220;2024-01-07T06:40:29;2.33;;;1.80;;
84662;SDS011;74891;59.208;18.220;2024-01-07T06:42:54;3.42;;;1.67;;
84662;SDS011;74891;59.208;18.220;2024-01-07T06:45:21;4.65;;;1.60;;
84662;SDS011;74891;59.208;18.220;2024-01-07T06:47:46;3.17;;;1.67;;
84662;SDS011;74891;59.208;18.220;2024-01-07T06:50:12;2.60;;;1.23;;
84662;SDS011;74891;59.208;18.220;2024-01-07T06:52:38;2.75;;;1.75;;
84662;SDS011;74891;59.208;18.220;2024-01-07T06:55:03;2.38;;;2.00;;
84662;SDS011;74891;59.208;18.220;2024-01-07T06:57:29;3.28;;;1.40;;
84662;SDS011;74891;59.208;18.220;2024-01-07T06:59:54;7.68;;;2.60;;
84662;SDS011;74891;59.208;18.220;2024-01-07T07:02:20;5.68;;;2.17;;
84662;SDS011;74891;59.208;18.220;2024-01-07T07:04:46;7.05;;;2.35;;
84662;SDS011;74891;59.208;18.220;2024-01-07T07:07:13;4.45;;;1.77;;
84662;SDS011;74891;59.208;18.220;2024-01-07T07:09:38;5.35;;;2.58;;
84662;SDS011;74891;59.208;18.220;2024-01-07T07:12:04;8.80;;;2.00;;
84662;SDS011;74891;59.208;18.220;2024-01-07T07:14:30;4.35;;;1.80;;
84662;SDS011;74891;59.208;18.220;2024-01-07T07:16:56;6.85;;;2.38;;
84662;SDS011;74891;59.208;18.220;2024-01-07T07:19:21;4.15;;;2.97;;
84662;SDS011;74891;59.208;18.220;2024-01-07T07:21:47;4.55;;;2.42;;
84662;SDS011;74891;59.208;18.220;2024-01-07T07:24:12;3.13;;;1.98;;
84662;SDS011;74891;59.208;18.220;2024-01-07T07:26:38;5.22;;;2.10;;
84662;SDS011;74891;59.208;18.220;2024-01-07T07:29:06;5.35;;;1.95;;
84662;SDS011;74891;59.208;18.220;2024-01-07T07:31:34;4.38;;;2.42;;
84662;SDS011;74891;59.208;18.220;2024-01-07T07:34:00;4.00;;;2.22;;
84662;SDS011;74891;59.208;18.220;2024-01-07T07:36:25;5.15;;;2.85;;
84662;SDS011;74891;59.208;18.220;2024-01-07T07:38:51;3.30;;;2.17;;
84662;SDS011;74891;59.208;18.220;2024-01-07T07:41:16;5.57;;;2.17;;
84662;SDS011;74891;59.208;18.220;2024-01-07T07:43:42;5.05;;;2.25;;
84662;SDS011;74891;59.208;18.220;2024-01-07T07:46:07;4.50;;;2.77;;
84662;SDS011;74891;59.208;18.220;2024-01-07T07:48:32;5.80;;;2.10;;
84662;SDS011;74891;59.208;18.220;2024-01-07T07:50:58;4.40;;;2.17;;
84662;SDS011;74891;59.208;18.220;2024-01-07T07:53:23;2.75;;;1.58;;
84662;SDS011;74891;59.208;18.220;2024-01-07T07:55:49;4.82;;;1.95;;
84662;SDS011;74891;59.208;18.220;2024-01-07T07:58:14;4.22;;;2.22;;
84662;SDS011;74891;59.208;18.220;2024-01-07T08:00:40;3.00;;;2.28;;
84662;SDS011;74891;59.208;18.220;2024-01-07T08:03:05;4.07;;;1.75;;
84662;SDS011;74891;59.208;18.220;2024-01-07T08:05:31;3.97;;;1.88;;
84662;SDS011;74891;59.208;18.220;2024-01-07T08:07:57;1.65;;;1.45;;
84662;SDS011;74891;59.208;18.220;2024-01-07T08:10:22;3.17;;;2.38;;
84662;SDS011;74891;59.208;18.220;2024-01-07T08:12:47;7.15;;;3.42;;
84662;SDS011;74891;59.208;18.220;2024-01-07T08:15:14;5.80;;;3.05;;
84662;SDS011;74891;59.208;18.220;2024-01-07T08:17:40;4.68;;;2.47;;
84662;SDS011;74891;59.208;18.220;2024-01-07T08:20:05;4.25;;;2.30;;
84662;SDS011;74891;59.208;18.220;2024-01-07T08:22:31;4.07;;;2.80;;
84662;SDS011;74891;59.208;18.220;2024-01-07T08:24:56;9.45;;;4.82;;
84662;SDS011;74891;59.208;18.220;2024-01-07T08:27:22;11.45;;;4.03;;
84662;SDS011;74891;59.208;18.220;2024-01-07T08:29:47;8.02;;;3.85;;
84662;SDS011;74891;59.208;18.220;2024-01-07T08:32:13;11.60;;;5.13;;
84662;SDS011;74891;59.208;18.220;2024-01-07T08:34:40;10.52;;;5.05;;
84662;SDS011;74891;59.208;18.220;2024-01-07T08:37:07;11.85;;;5.30;;
84662;SDS011;74891;59.208;18.220;2024-01-07T08:39:34;11.60;;;3.67;;
84662;SDS011;74891;59.208;18.220;2024-01-07T08:41:59;11.32;;;4.68;;
84662;SDS011;74891;59.208;18.220;2024-01-07T08:44:24;7.57;;;4.45;;
84662;SDS011;74891;59.208;18.220;2024-01-07T08:46:50;9.00;;;4.07;;
84662;SDS011;74891;59.208;18.220;2024-01-07T08:49:15;14.80;;;5.85;;
84662;SDS011;74891;59.208;18.220;2024-01-07T08:51:41;6.55;;;3.88;;
84662;SDS011;74891;59.208;18.220;2024-01-07T08:54:06;7.38;;;3.63;;
84662;SDS011;74891;59.208;18.220;2024-01-07T08:56:32;7.07;;;3.20;;
84662;SDS011;74891;59.208;18.220;2024-01-07T08:58:57;9.55;;;4.10;;
84662;SDS011;74891;59.208;18.220;2024-01-07T09:01:24;7.90;;;3.50;;
84662;SDS011;74891;59.208;18.220;2024-01-07T09:03:49;5.57;;;3.33;;
84662;SDS011;74891;59.208;18.220;2024-01-07T09:06:15;8.02;;;3.58;;
84662;SDS011;74891;59.208;18.220;2024-01-07T09:08:40;5.97;;;3.33;;
84662;SDS011;74891;59.208;18.220;2024-01-07T09:11:06;9.07;;;4.18;;
84662;SDS011;74891;59.208;18.220;2024-01-07T09:13:32;8.75;;;4.30;;
84662;SDS011;74891;59.208;18.220;2024-01-07T09:15:57;5.97;;;4.35;;
84662;SDS011;74891;59.208;18.220;2024-01-07T09:18:23;11.43;;;5.07;;
84662;SDS011;74891;59.208;18.220;2024-01-07T09:20:48;7.30;;;3.90;;
84662;SDS011;74891;59.208;18.220;2024-01-07T09:23:14;9.77;;;4.65;;
84662;SDS011;74891;59.208;18.220;2024-01-07T09:25:40;6.93;;;3.83;;
84662;SDS011;74891;59.208;18.220;2024-01-07T09:28:06;6.07;;;3.65;;
84662;SDS011;74891;59.208;18.220;2024-01-07T09:30:32;7.68;;;4.50;;
84662;SDS011;74891;59.208;18.220;2024-01-07T09:32:57;7.43;;;3.72;;
84662;SDS011;74891;59.208;18.220;2024-01-07T09:35:23;8.52;;;3.92;;
84662;SDS011;74891;59.208;18.220;2024-01-07T09:37:48;7.43;;;4.20;;
84662;SDS011;74891;59.208;18.220;2024-01-07T09:40:16;10.68;;;4.40;;
84662;SDS011;74891;59.208;18.220;2024-01-07T09:42:46;10.27;;;5.78;;
84662;SDS011;74891;59.208;18.220;2024-01-07T09:45:12;8.60;;;4.35;;
84662;SDS011;74891;59.208;18.220;2024-01-07T09:47:39;9.38;;;4.70;;
84662;SDS011;74891;59.208;18.220;2024-01-07T09:50:06;6.75;;;3.92;;
84662;SDS011;74891;59.208;18.220;2024-01-07T09:52:34;7.25;;;4.00;;
84662;SDS011;74891;59.208;18.220;2024-01-07T09:55:02;4.93;;;3.40;;
84662;SDS011;74891;59.208;18.220;2024-01-07T09:57:28;9.50;;;3.65;;
84662;SDS011;74891;59.208;18.220;2024-01-07T09:59:55;6.43;;;3.00;;
84662;SDS011;74891;59.208;18.220;2024-01-07T10:02:20;6.00;;;2.92;;
84662;SDS011;74891;59.208;18.220;2024-01-07T10:04:49;6.18;;;2.58;;
84662;SDS011;74891;59.208;18.220;2024-01-07T10:07:15;7.20;;;2.92;;
84662;SDS011;74891;59.208;18.220;2024-01-07T10:09:41;6.13;;;3.17;;
84662;SDS011;74891;59.208;18.220;2024-01-07T10:12:10;5.95;;;3.17;;
84662;SDS011;74891;59.208;18.220;2024-01-07T10:14:37;7.57;;;3.50;;
84662;SDS011;74891;59.208;18.220;2024-01-07T10:17:13;7.53;;;3.35;;
84662;SDS011;74891;59.208;18.220;2024-01-07T10:19:41;3.58;;;2.85;;
84662;SDS011;74891;59.208;18.220;2024-01-07T10:22:09;7.10;;;2.83;;
84662;SDS011;74891;59.208;18.220;2024-01-07T10:24:38;8.70;;;3.88;;
84662;SDS011;74891;59.208;18.220;2024-01-07T10:27:05;6.25;;;3.30;;
84662;SDS011;74891;59.208;18.220;2024-01-07T10:29:31;7.47;;;3.85;;
84662;SDS011;74891;59.208;18.220;2024-01-07T10:31:58;8.27;;;3.80;;
84662;SDS011;74891;59.208;18.220;2024-01-07T10:34:24;5.75;;;3.33;;
84662;SDS011;74891;59.208;18.220;2024-01-07T10:36:54;6.95;;;4.00;;
84662;SDS011;74891;59.208;18.220;2024-01-07T10:39:21;7.03;;;3.67;;
84662;SDS011;74891;59.208;18.220;2024-01-07T10:41:46;6.90;;;3.85;;
84662;SDS011;74891;59.208;18.220;2024-01-07T10:44:12;5.95;;;3.42;;
84662;SDS011;74891;59.208;18.220;2024-01-07T10:46:39;5.30;;;3.00;;
84662;SDS011;74891;59.208;18.220;2024-01-07T10:49:07;7.43;;;3.67;;
84662;SDS011;74891;59.208;18.220;2024-01-07T10:51:42;7.72;;;3.10;;
84662;SDS011;74891;59.208;18.220;2024-01-07T10:54:09;6.95;;;4.38;;
84662;SDS011;74891;59.208;18.220;2024-01-07T10:56:39;7.20;;;3.90;;
84662;SDS011;74891;59.208;18.220;2024-01-07T10:59:11;6.90;;;3.53;;
84662;SDS011;74891;59.208;18.220;2024-01-07T11:01:36;6.05;;;3.13;;
84662;SDS011;74891;59.208;18.220;2024-01-07T11:04:06;8.52;;;4.13;;
84662;SDS011;74891;59.208;18.220;2024-01-07T11:09:38;8.05;;;4.13;;
84662;SDS011;74891;59.208;18.220;2024-01-07T11:12:10;11.90;;;4.85;;
84662;SDS011;74891;59.208;18.220;2024-01-07T11:17:39;6.28;;;3.80;;
84662;SDS011;74891;59.208;18.220;2024-01-07T11:20:06;7.68;;;3.75;;
84662;SDS011;74891;59.208;18.220;2024-01-07T11:22:33;11.40;;;4.90;;
84662;SDS011;74891;59.208;18.220;2024-01-07T11:24:59;7.07;;;3.72;;
84662;SDS011;74891;59.208;18.220;2024-01-07T11:27:30;8.73;;;4.20;;
84662;SDS011;74891;59.208;18.220;2024-01-07T11:30:03;9.23;;;3.95;;
84662;SDS011;74891;59.208;18.220;2024-01-07T11:32:32;10.15;;;4.55;;
84662;SDS011;74891;59.208;18.220;2024-01-07T11:34:59;7.20;;;4.03;;
84662;SDS011;74891;59.208;18.220;2024-01-07T11:37:25;9.75;;;5.07;;
84662;SDS011;74891;59.208;18.220;2024-01-07T11:39:53;15.73;;;5.07;;
84662;SDS011;74891;59.208;18.220;2024-01-07T11:42:20;7.28;;;4.20;;
84662;SDS011;74891;59.208;18.220;2024-01-07T11:44:56;8.25;;;4.25;;
84662;SDS011;74891;59.208;18.220;2024-01-07T11:47:23;7.40;;;4.15;;
84662;SDS011;74891;59.208;18.220;2024-01-07T11:49:50;7.15;;;3.83;;
84662;SDS011;74891;59.208;18.220;2024-01-07T11:52:16;7.72;;;4.07;;
84662;SDS011;74891;59.208;18.220;2024-01-07T11:54:42;7.90;;;3.70;;
84662;SDS011;74891;59.208;18.220;2024-01-07T11:57:08;8.52;;;3.85;;
84662;SDS011;74891;59.208;18.220;2024-01-07T11:59:35;7.60;;;3.90;;
84662;SDS011;74891;59.208;18.220;2024-01-07T12:02:01;5.85;;;3.70;;
84662;SDS011;74891;59.208;18.220;2024-01-07T12:04:31;12.20;;;4.70;;
84662;SDS011;74891;59.208;18.220;2024-01-07T12:07:01;10.27;;;4.60;;
84662;SDS011;74891;59.208;18.220;2024-01-07T12:09:28;5.57;;;3.45;;
84662;SDS011;74891;59.208;18.220;2024-01-07T12:11:54;9.05;;;4.40;;
84662;SDS011;74891;59.208;18.220;2024-01-07T12:14:20;9.82;;;3.72;;
84662;SDS011;74891;59.208;18.220;2024-01-07T12:16:46;8.00;;;4.95;;
84662;SDS011;74891;59.208;18.220;2024-01-07T12:19:12;7.53;;;3.80;;
84662;SDS011;74891;59.208;18.220;2024-01-07T12:21:37;14.88;;;4.95;;
84662;SDS011;74891;59.208;18.220;2024-01-07T12:24:03;8.50;;;4.35;;
84662;SDS011;74891;59.208;18.220;2024-01-07T12:26:30;9.55;;;4.10;;
84662;SDS011;74891;59.208;18.220;2024-01-07T12:28:58;9.25;;;3.88;;
84662;SDS011;74891;59.208;18.220;2024-01-07T12:31:31;7.07;;;4.22;;
84662;SDS011;74891;59.208;18.220;2024-01-07T12:33:58;8.95;;;4.32;;
84662;SDS011;74891;59.208;18.220;2024-01-07T12:36:24;12.07;;;4.85;;
84662;SDS011;74891;59.208;18.220;2024-01-07T12:38:51;9.45;;;4.38;;
84662;SDS011;74891;59.208;18.220;2024-01-07T12:41:19;9.65;;;3.95;;
84662;SDS011;74891;59.208;18.220;2024-01-07T12:43:45;5.75;;;3.28;;
84662;SDS011;74891;59.208;18.220;2024-01-07T12:46:11;6.75;;;3.85;;
84662;SDS011;74891;59.208;18.220;2024-01-07T12:48:36;7.70;;;3.90;;
84662;SDS011;74891;59.208;18.220;2024-01-07T12:51:02;6.32;;;4.22;;
84662;SDS011;74891;59.208;18.220;2024-01-07T12:53:27;9.13;;;4.55;;
84662;SDS011;74891;59.208;18.220;2024-01-07T12:55:53;8.18;;;4.22;;
84662;SDS011;74891;59.208;18.220;2024-01-07T12:58:19;10.50;;;5.28;;
84662;SDS011;74891;59.208;18.220;2024-01-07T13:00:46;8.52;;;4.82;;
84662;SDS011;74891;59.208;18.220;2024-01-07T13:03:11;14.18;;;5.07;;
84662;SDS011;74891;59.208;18.220;2024-01-07T13:05:45;7.05;;;3.30;;
84662;SDS011;74891;59.208;18.220;2024-01-07T13:08:13;7.68;;;4.40;;
84662;SDS011;74891;59.208;18.220;2024-01-07T13:10:39;6.68;;;4.18;;
84662;SDS011;74891;59.208;18.220;2024-01-07T13:13:04;13.93;;;5.13;;
84662;SDS011;74891;59.208;18.220;2024-01-07T13:15:30;10.07;;;4.63;;
84662;SDS011;74891;59.208;18.220;2024-01-07T13:17:56;9.80;;;4.82;;
84662;SDS011;74891;59.208;18.220;2024-01-07T13:20:25;9.25;;;4.20;;
84662;SDS011;74891;59.208;18.220;2024-01-07T13:22:50;9.45;;;4.45;;
84662;SDS011;74891;59.208;18.220;2024-01-07T13:25:16;7.82;;;4.38;;
84662;SDS011;74891;59.208;18.220;2024-01-07T13:27:41;10.20;;;4.43;;
84662;SDS011;74891;59.208;18.220;2024-01-07T13:30:09;7.85;;;4.00;;
84662;SDS011;74891;59.208;18.220;2024-01-07T13:32:36;11.02;;;5.10;;
84662;SDS011;74891;59.208;18.220;2024-01-07T13:35:05;8.20;;;4.90;;
84662;SDS011;74891;59.208;18.220;2024-01-07T13:37:35;7.57;;;4.40;;
84662;SDS011;74891;59.208;18.220;2024-01-07T13:40:01;10.23;;;4.47;;
84662;SDS011;74891;59.208;18.220;2024-01-07T13:42:26;13.45;;;4.97;;
84662;SDS011;74891;59.208;18.220;2024-01-07T13:44:52;11.70;;;5.63;;
84662;SDS011;74891;59.208;18.220;2024-01-07T13:47:17;11.20;;;5.07;;
84662;SDS011;74891;59.208;18.220;2024-01-07T13:49:42;11.98;;;6.22;;
84662;SDS011;74891;59.208;18.220;2024-01-07T13:52:10;9.05;;;4.50;;
84662;SDS011;74891;59.208;18.220;2024-01-07T13:54:35;10.43;;;5.30;;
84662;SDS011;74891;59.208;18.220;2024-01-07T13:57:02;12.05;;;5.03;;
84662;SDS011;74891;59.208;18.220;2024-01-07T13:59:28;8.90;;;4.50;;
84662;SDS011;74891;59.208;18.220;2024-01-07T14:01:53;9.57;;;4.33;;
84662;SDS011;74891;59.208;18.220;2024-01-07T14:04:19;10.07;;;4.75;;
84662;SDS011;74891;59.208;18.220;2024-01-07T14:06:47;9.10;;;3.97;;
84662;SDS011;74891;59.208;18.220;2024-01-07T14:09:14;8.48;;;4.20;;
84662;SDS011;74891;59.208;18.220;2024-01-07T14:11:40;9.80;;;4.65;;
84662;SDS011;74891;59.208;18.220;2024-01-07T14:14:08;9.95;;;4.10;;
84662;SDS011;74891;59.208;18.220;2024-01-07T14:16:36;7.95;;;4.93;;
84662;SDS011;74891;59.208;18.220;2024-01-07T14:19:02;10.48;;;4.40;;
84662;SDS011;74891;59.208;18.220;2024-01-07T14:21:28;7.80;;;3.85;;
84662;SDS011;74891;59.208;18.220;2024-01-07T14:23:55;9.23;;;4.43;;
84662;SDS011;74891;59.208;18.220;2024-01-07T14:26:21;11.90;;;5.07;;
84662;SDS011;74891;59.208;18.220;2024-01-07T14:28:48;12.30;;;4.85;;
84662;SDS011;74891;59.208;18.220;2024-01-07T14:31:15;8.93;;;4.50;;
84662;SDS011;74891;59.208;18.220;2024-01-07T14:33:41;8.73;;;4.32;;